Latest Weather Observations for Launceston Airport

IDT60801

Issued at 7:31 pm EST Friday 22 May 2015 (issued every 30 minutes, with the page automatically refreshed every 10 minutes)

About weather observations | Map of weather stations | Latest weather observations for TAS | Other Formats
Station Details ID: 091311 Name: LAUNCESTON AIRPORT Lat: -41.55 Lon: 147.21 Height: 166.9 m
Data from the previous 72 hours. | See also: Recent months at Launceston Airport
Date/Time
EST
Temp
°C
App
Temp
°C
Dew
Point
Rel
Hum
%
Delta-T
°C
Wind Press
QNH
hPa
Press
MSL
hPa
Rain
since 9 am
mm
Dir
 
Spd
km/h
Gust
km/h
Spd
kts
Gust
kts
22/07:30pm 3.7 0.5 0.7 81 1.1 N 7 7 4 4 1027.2 1027.5 0.0
22/07:00pm 3.7 0.1 0.6 80 1.2 N 9 9 5 5 1027.1 1027.4 0.0
22/06:30pm 4.2 0.9 0.0 74 1.6 NNW 7 9 4 5 1027.0 1027.3 0.0
22/06:00pm 6.2 3.1 1.5 72 1.9 NW 7 9 4 5 1027.0 1027.3 0.0
22/05:30pm 6.3 3.2 1.4 71 2.0 WNW 7 9 4 5 1026.8 1027.1 0.0
22/05:00pm 8.0 5.0 2.0 66 2.5 NW 7 9 4 5 1026.7 1027.0 0.0
22/04:30pm 9.5 6.6 1.2 56 3.4 N 6 9 3 5 1026.6 1026.9 0.0
22/04:00pm 11.3 8.5 1.8 52 4.0 NW 6 9 3 5 1026.5 1026.8 0.0
22/03:30pm 11.7 9.2 1.4 49 4.4 E 4 7 2 4 1026.4 1026.7 0.0
22/03:00pm 11.1 9.0 1.4 51 4.1 ENE 2 7 1 4 1026.3 1026.6 0.0
22/02:30pm 11.1 8.0 1.4 51 4.1 E 7 9 4 5 1026.2 1026.4 0.0
22/02:00pm 11.4 8.8 1.1 49 4.3 ESE 4 9 2 5 1026.4 1026.7 0.0
22/01:30pm 10.8 7.9 1.4 52 4.0 ESE 6 13 3 7 1026.6 1026.9 0.0
22/01:00pm 10.6 7.5 1.4 53 3.9 SE 7 13 4 7 1026.8 1027.1 0.0
22/12:30pm 10.5 7.1 1.9 55 3.6 SE 9 20 5 11 1027.3 1027.6 0.0
22/12:00pm 10.0 6.6 1.9 57 3.4 SE 9 17 5 9 1027.7 1028.0 0.0
22/11:30am 9.5 6.0 1.2 56 3.4 SE 9 13 5 7 1028.0 1028.3 0.0
22/11:00am 9.1 6.1 2.0 61 3.0 ESE 7 11 4 6 1028.4 1028.7 0.0
22/10:30am 8.4 5.1 2.2 65 2.6 SE 9 13 5 7 1028.6 1028.9 0.0
22/10:00am 7.4 4.4 2.1 69 2.2 SSE 7 13 4 7 1028.7 1029.0 0.0
22/09:30am 6.1 4.4 1.8 74 1.7 CALM 0 0 0 0 1028.6 1028.9 0.0
22/09:00am 4.2 1.4 2.1 86 0.8 SE 6 7 3 4 1028.8 1029.1 0.0
22/08:30am 2.3 -0.7 1.0 91 0.5 S 6 9 3 5 1028.9 1029.2 0.0
22/08:00am 0.5 -3.0 -1.4 87 0.7 SE 7 11 4 6 1028.6 1028.9 0.0
22/07:30am 2.6 0.7 0.7 87 0.7 CALM 0 6 0 3 1028.3 1028.6 0.0
22/07:00am 1.8 -1.9 -0.3 86 0.8 SSW 9 11 5 6 1028.3 1028.6 0.0
22/06:30am 1.8 -1.9 -0.3 86 0.8 SSW 9 13 5 7 1028.2 1028.5 0.0
22/06:00am 1.3 -2.0 -0.9 85 0.8 WSW 6 7 3 4 1027.7 1028.0 0.0
22/05:30am 2.1 0.0 -0.5 83 1.0 CALM 0 0 0 0 1027.5 1027.8 0.0
22/05:00am 2.9 1.0 0.3 83 1.0 CALM 0 0 0 0 1027.4 1027.7 0.0
22/04:30am 2.5 0.2 0.4 86 0.8 WNW 2 6 1 3 1027.6 1027.9 0.0
22/04:00am 2.7 -1.0 -0.2 81 1.1 SW 9 11 5 6 1027.4 1027.7 0.0
22/03:30am 3.8 0.2 0.3 78 1.3 S 9 9 5 5 1027.6 1027.9 0.0
22/03:00am 4.0 0.4 0.5 78 1.3 S 9 11 5 6 1027.7 1028.0 0.0
22/02:30am 4.3 0.7 0.5 76 1.5 SSE 9 13 5 7 1027.7 1028.0 0.0
22/02:00am 4.7 1.1 0.7 75 1.5 S 9 11 5 6 1027.8 1028.1 0.0
22/01:30am 6.1 2.6 1.4 72 1.9 SSE 9 11 5 6 1027.9 1028.2 0.0
22/01:00am 6.7 3.3 1.6 70 2.1 SSE 9 13 5 7 1028.0 1028.3 0.0
22/12:30am 6.6 3.6 1.7 71 2.0 SSE 7 9 4 5 1027.9 1028.2 0.0
22/12:00am 6.6 3.2 1.9 72 1.9 S 9 9 5 5 1028.1 1028.4 0.0
 
Date/Time
EST
Temp
°C
App
Temp
°C
Dew
Point
Rel
Hum
%
Delta-T
°C
Wind Press
QNH
hPa
Press
MSL
hPa
Rain
since 9 am
mm
Dir
 
Spd
km/h
Gust
km/h
Spd
kts
Gust
kts
21/11:30pm 6.4 3.0 1.7 72 1.9 S 9 11 5 6 1028.1 1028.4 0.0
21/11:00pm 6.5 3.1 1.6 71 2.0 SSE 9 13 5 7 1028.2 1028.5 0.0
21/10:30pm 6.5 3.1 1.6 71 2.0 SSE 9 13 5 7 1028.2 1028.5 0.0
21/10:00pm 6.0 2.1 1.3 72 1.9 SSE 11 13 6 7 1028.1 1028.4 0.0
21/09:30pm 5.5 1.6 1.1 73 1.7 SSE 11 15 6 8 1028.0 1028.3 0.0
21/09:00pm 4.8 0.0 0.4 73 1.7 SE 15 19 8 10 1028.0 1028.3 0.0
21/08:30pm 5.6 0.9 0.6 70 2.0 SE 15 19 8 10 1027.9 1028.2 0.0
21/08:00pm 7.2 2.9 1.1 65 2.4 SE 13 17 7 9 1027.7 1028.0 0.0
21/07:30pm 8.4 2.9 0.4 57 3.2 SSE 19 28 10 15 1027.6 1027.9 0.0
21/07:00pm 8.4 3.4 1.3 61 2.9 SE 17 20 9 11 1027.4 1027.7 0.0
21/06:30pm 8.6 3.2 1.3 60 3.0 SE 19 24 10 13 1027.1 1027.4 0.0
21/06:00pm 8.7 3.1 1.4 60 3.0 SE 20 26 11 14 1026.8 1027.1 0.0
21/05:30pm 8.6 3.7 1.7 62 2.9 SE 17 22 9 12 1026.4 1026.7 0.0
21/05:00pm 8.7 3.4 2.1 63 2.8 SSE 19 24 10 13 1026.0 1026.2 0.0
21/04:30pm 9.1 2.8 1.5 59 3.2 SE 24 32 13 17 1025.7 1025.9 0.0
21/04:00pm 10.0 3.8 2.4 59 3.2 SSE 24 32 13 17 1025.3 1025.5 0.0
21/03:30pm 10.6 4.1 2.7 58 3.4 SSE 26 35 14 19 1025.1 1025.3 0.0
21/03:00pm 11.5 5.4 3.0 56 3.7 SSE 24 32 13 17 1024.8 1025.0 0.0
21/02:30pm 12.2 6.6 3.7 56 3.8 SE 22 32 12 17 1024.7 1024.9 0.0
21/02:00pm 11.6 6.0 3.4 57 3.6 SSE 22 30 12 16 1024.6 1024.8 0.0
21/01:30pm 10.8 4.8 3.6 61 3.2 SSE 24 30 13 16 1024.6 1024.8 0.0
21/01:00pm 10.7 4.7 3.5 61 3.2 SSE 24 32 13 17 1024.6 1024.8 0.0
21/12:30pm 10.4 4.0 3.2 61 3.2 SE 26 33 14 18 1024.8 1025.0 0.0
21/12:00pm 10.5 4.2 4.0 64 2.9 SE 26 37 14 20 1025.0 1025.2 0.0
21/11:30am 10.9 5.2 4.8 66 2.8 SE 24 33 13 18 1025.2 1025.4 0.0
21/11:00am 10.2 3.8 5.0 70 2.4 SE 28 35 15 19 1025.3 1025.5 0.0
21/10:30am 9.8 3.3 4.6 70 2.3 SE 28 37 15 20 1025.1 1025.3 0.0
21/10:00am 9.1 4.0 4.3 72 2.1 SSE 20 26 11 14 1024.7 1024.9 0.0
21/09:30am 8.7 3.7 4.7 76 1.8 SSE 20 26 11 14 1024.4 1024.6 0.0
21/09:00am 6.3 1.0 2.8 78 1.5 SSE 20 26 11 14 1023.9 1024.2 0.0
21/08:30am 5.1 -0.2 1.8 79 1.3 SSE 19 20 10 11 1023.4 1023.7 0.0
21/08:00am 4.1 -0.6 1.1 81 1.2 S 15 17 8 9 1022.8 1023.1 0.0
21/07:30am 3.0 -2.5 0.4 83 1.0 SSE 19 20 10 11 1022.3 1022.6 0.0
21/07:00am 3.8 -1.0 0.5 79 1.3 S 15 17 8 9 1021.8 1022.1 0.0
21/06:30am 4.5 -0.6 0.8 77 1.4 S 17 24 9 13 1021.4 1021.7 0.0
21/06:00am 4.0 -1.1 0.7 79 1.3 S 17 20 9 11 1021.0 1021.2 0.0
21/05:30am 3.8 -1.7 0.7 80 1.2 SSE 19 22 10 12 1020.7 1020.9 0.0
21/05:00am 4.8 -1.6 0.8 75 1.6 S 24 28 13 15 1020.0 1020.2 0.0
21/04:30am 4.9 -0.2 0.9 75 1.6 S 17 20 9 11 1019.4 1019.6 0.0
21/04:00am 4.5 -0.9 1.0 78 1.4 S 19 20 10 11 1019.1 1019.3 0.0
21/03:30am 4.4 -1.2 1.3 80 1.2 S 20 28 11 15 1019.1 1019.3 0.0
21/03:00am 5.1 -0.8 1.9 80 1.3 S 22 32 12 17 1019.0 1019.2 0.0
21/02:30am 5.2 -0.2 2.7 84 1.0 SSE 20 28 11 15 1018.5 1018.7 0.0
21/02:00am 5.5 -0.1 3.3 86 0.9 SSE 22 28 12 15 1018.3 1018.5 0.0
21/01:30am 6.3 0.5 4.5 88 0.8 SSE 24 32 13 17 1017.8 1018.1 0.0
21/01:00am 6.1 1.2 4.9 92 0.5 S 20 24 11 13 1017.3 1017.6 0.0
21/12:30am 6.1 1.7 4.9 92 0.5 SSE 17 20 9 11 1017.2 1017.5 0.0
21/12:00am 6.6 2.3 5.2 91 0.6 S 17 28 9 15 1017.0 1017.3 0.0
 
Date/Time
EST
Temp
°C
App
Temp
°C
Dew
Point
Rel
Hum
%
Delta-T
°C
Wind Press
QNH
hPa
Press
MSL
hPa
Rain
since 9 am
mm
Dir
 
Spd
km/h
Gust
km/h
Spd
kts
Gust
kts
20/11:30pm 6.9 2.3 5.8 93 0.5 S 19 20 10 11 1016.7 1017.0 0.0
20/11:00pm 6.4 2.5 5.2 92 0.5 S 15 19 8 10 1016.2 1016.4 0.0
20/10:30pm 6.6 3.0 5.2 91 0.6 S 13 15 7 8 1016.1 1016.3 0.0
20/10:00pm 7.2 3.3 5.5 89 0.8 SSE 15 19 8 10 1016.2 1016.4 0.0
20/09:30pm 8.0 2.9 6.0 87 0.9 SSE 22 28 12 15 1016.1 1016.3 0.0
20/09:00pm 8.4 2.6 6.4 87 0.9 SSE 26 33 14 18 1015.7 1015.9 0.0
20/08:30pm 8.4 3.8 6.7 89 0.8 S 20 28 11 15 1015.0 1015.2 0.0
20/08:00pm 8.5 5.2 6.6 88 0.9 S 13 17 7 9 1014.1 1014.3 0.0
20/07:30pm 9.0 5.1 7.1 88 0.9 S 17 20 9 11 1013.8 1014.0 0.0
20/07:00pm 9.7 6.7 7.5 86 1.1 SSE 13 19 7 10 1013.5 1013.7 0.0
20/06:30pm 10.0 6.2 7.4 84 1.2 SSE 17 24 9 13 1013.1 1013.3 0.0
20/06:00pm 10.6 5.9 7.7 82 1.4 SSE 22 28 12 15 1013.0 1013.2 0.0
20/05:30pm 11.0 6.4 8.0 82 1.5 SSE 22 30 12 16 1012.6 1012.8 0.0
20/05:00pm 11.3 7.1 8.2 81 1.5 SSE 20 26 11 14 1012.1 1012.3 0.0
20/04:30pm 11.6 7.4 8.3 80 1.6 SSE 20 26 11 14 1011.6 1011.9 0.0
20/04:00pm 11.8 7.7 8.6 81 1.6 SSE 20 28 11 15 1011.2 1011.4 0.0
20/03:30pm 11.8 7.9 8.8 82 1.5 SSE 19 26 10 14 1010.8 1011.0 0.0
20/03:00pm 12.0 8.2 9.0 82 1.5 SSE 19 24 10 13 1010.4 1010.6 0.0
20/02:30pm 11.8 7.8 9.2 84 1.3 SSE 20 24 11 13 1010.0 1010.2 0.0
20/02:00pm 12.1 9.1 9.3 83 1.4 SSE 15 19 8 10 1009.9 1010.1 0.0
20/01:30pm 11.9 8.5 9.1 83 1.4 SSE 17 24 9 13 1010.0 1010.2 0.0
20/01:00pm 12.1 8.8 9.7 85 1.2 SSE 17 22 9 12 1010.0 1010.2 0.0
20/12:30pm 11.9 8.0 9.5 85 1.2 SE 20 26 11 14 1010.2 1010.4 0.0
20/12:21pm 12.2 8.6 9.9 86 1.2 SSE 19 22 10 12 1010.3 1010.5 0.0
20/12:00pm 12.2 9.5 10.3 88 1.0 SSE 15 24 8 13 1010.5 1010.7 0.0
20/11:30am 11.4 8.2 10.0 91 0.7 S 17 20 9 11 1010.6 1010.8 0.0
20/11:19am 11.4 8.6 10.1 92 0.7 SSE 15 22 8 12 1010.6 1010.8 0.0
20/11:00am 11.4 8.7 10.5 94 0.5 SSE 15 19 8 10 1010.6 1010.8 0.0
20/10:47am 11.0 8.7 10.4 96 0.3 SSE 13 17 7 9 1010.5 1010.7 0.0
20/10:30am 10.6 7.8 10.1 97 0.3 SSE 15 19 8 10 1010.4 1010.6 0.0
20/10:00am 10.4 8.0 9.9 97 0.3 SSE 13 19 7 10 1010.3 1010.5 0.0
20/09:54am 10.3 7.8 9.8 97 0.3 SSE 13 15 7 8 1010.2 1010.4 0.0
20/09:30am 9.5 7.6 9.0 97 0.2 S 9 13 5 7 1010.0 1010.2 0.0
20/09:00am 9.2 7.2 8.7 97 0.2 S 9 13 5 7 1009.8 1010.0 7.6
20/08:57am 9.1 7.1 8.6 97 0.2 SSW 9 13 5 7 1009.8 1010.0 7.6
20/08:30am 8.8 6.3 8.4 97 0.2 SSW 11 13 6 7 1009.7 1009.9 7.6
20/08:00am 8.5 6.0 8.1 97 0.2 SSW 11 13 6 7 1009.3 1009.5 7.6
20/07:49am 8.5 6.0 8.1 97 0.2 SSW 11 15 6 8 1009.1 1009.3 7.6
20/07:30am 8.4 6.6 8.0 97 0.2 SW 7 9 4 5 1008.8 1009.0 7.6
20/07:20am 8.2 6.0 7.8 97 0.2 WSW 9 11 5 6 1008.6 1008.8 7.6
20/07:00am 7.9 6.1 7.3 96 0.3 SSE 6 7 3 4 1008.4 1008.6 7.6
20/06:49am 7.8 7.2 7.2 96 0.3 CALM 0 0 0 0 1008.2 1008.4 7.6
20/06:44am 7.7 7.0 7.0 95 0.3 CALM 0 6 0 3 1008.2 1008.4 7.6
20/06:37am 8.2 6.9 7.6 96 0.3 SSE 4 7 2 4 1008.3 1008.5 7.6
20/06:30am 8.7 7.1 8.1 96 0.3 SSW 6 9 3 5 1008.2 1008.4 7.6
20/06:27am 8.1 6.3 7.3 95 0.4 SW 6 9 3 5 1008.2 1008.4 7.6
20/06:13am 9.1 6.7 8.5 96 0.3 W 11 13 6 7 1008.0 1008.2 7.6
20/06:00am 9.9 9.8 9.3 96 0.3 CALM 0 0 0 0 1007.9 1008.1 7.6
20/05:30am 9.9 9.8 9.3 96 0.3 CALM 0 0 0 0 1007.8 1008.0 7.6
20/05:23am 9.8 9.6 9.2 96 0.3 CALM 0 0 0 0 1007.7 1007.9 7.6
20/05:00am 9.8 9.6 9.2 96 0.3 CALM 0 0 0 0 1007.6 1007.8 7.6
20/04:59am 9.8 9.6 9.2 96 0.3 CALM 0 0 0 0 1007.6 1007.8 7.6
20/04:31am 9.6 9.4 9.0 96 0.3 CALM 0 0 0 0 1007.2 1007.4 7.6
20/04:30am 9.6 9.4 9.0 96 0.3 CALM 0 0 0 0 1007.2 1007.4 7.6
20/04:00am 9.7 8.4 9.1 96 0.3 WNW 6 7 3 4 1006.8 1007.0 7.6
20/03:30am 10.3 9.1 9.7 96 0.3 N 6 7 3 4 1006.8 1007.0 7.6
20/03:00am 10.3 9.1 9.7 96 0.3 N 6 7 3 4 1006.7 1006.9 7.6
20/02:30am 10.4 9.1 9.9 97 0.3 WNW 7 11 4 6 1006.8 1007.0 7.6
20/02:07am 10.6 9.0 10.1 97 0.3 WNW 9 13 5 7 1006.7 1006.9 7.6
20/02:00am 10.7 9.1 10.2 97 0.3 WNW 9 13 5 7 1006.7 1006.9 7.6
20/01:50am 10.6 9.0 10.1 97 0.3 NW 9 11 5 6 1006.6 1006.8 7.6
20/01:30am 10.2 8.8 9.7 97 0.3 NW 7 9 4 5 1006.7 1006.9 7.6
20/01:26am 9.5 8.0 9.0 97 0.2 NW 7 9 4 5 1006.7 1006.9 7.6
20/01:20am 10.3 8.6 9.8 97 0.3 NW 9 13 5 7 1006.7 1006.9 7.6
20/01:00am 10.4 7.6 9.9 97 0.3 NW 15 17 8 9 1006.7 1006.9 7.6
20/12:51am 10.1 7.2 9.6 97 0.3 NW 15 17 8 9 1006.6 1006.8 7.6
20/12:45am 10.1 6.8 9.6 97 0.3 NNW 17 19 9 10 1006.6 1006.8 7.6
20/12:31am 10.8 7.7 10.3 97 0.3 NNW 17 20 9 11 1006.5 1006.7 7.6
20/12:30am 10.8 7.7 10.3 97 0.3 NNW 17 20 9 11 1006.4 1006.5 7.6
20/12:00am 11.7 9.2 11.2 97 0.3 NNW 15 19 8 10 1006.4 1006.5 7.4
 
Date/Time
EST
Temp
°C
App
Temp
°C
Dew
Point
Rel
Hum
%
Delta-T
°C
Wind Press
QNH
hPa
Press
MSL
hPa
Rain
since 9 am
mm
Dir
 
Spd
km/h
Gust
km/h
Spd
kts
Gust
kts
19/11:36pm 11.8 9.4 11.3 97 0.3 NNW 15 20 8 11 1006.5 1006.7 7.4
19/11:30pm 11.8 9.4 11.3 97 0.3 N 15 20 8 11 1006.4 1006.5 7.4
19/11:05pm 11.8 9.4 11.3 97 0.3 N 15 20 8 11 1006.5 1006.7 7.4
19/11:04pm 11.8 9.4 11.3 97 0.3 N 15 20 8 11 1006.5 1006.7 7.4
19/11:00pm 11.8 9.4 11.3 97 0.3 N 15 20 8 11 1006.5 1006.7 7.4
19/10:48pm 11.8 9.3 11.2 96 0.3 N 15 17 8 9 1006.5 1006.7 7.4
19/10:39pm 11.7 9.6 11.1 96 0.3 N 13 17 7 9 1006.6 1006.8 7.4
19/10:30pm 11.8 9.7 11.2 96 0.3 NNW 13 15 7 8 1006.7 1006.9 7.4
19/10:00pm 11.9 9.5 11.3 96 0.3 NNW 15 19 8 10 1006.9 1007.1 6.8
19/09:59pm 11.9 9.5 11.3 96 0.3 NNW 15 19 8 10 1006.8 1007.0 6.8
19/09:44pm 11.9 9.5 11.3 96 0.3 NNW 15 19 8 10 1006.9 1007.1 6.8
19/09:30pm 11.9 9.5 11.3 96 0.3 NW 15 20 8 11 1006.9 1007.1 6.4
19/09:21pm 11.9 9.1 11.3 96 0.3 NNW 17 20 9 11 1006.8 1007.0 6.4
19/09:00pm 11.9 9.1 11.3 96 0.3 NW 17 20 9 11 1006.8 1007.0 6.2
19/08:30pm 11.9 8.7 11.3 96 0.3 NNW 19 22 10 12 1006.5 1006.7 5.0
19/08:00pm 11.8 8.0 11.2 96 0.3 NNW 22 28 12 15 1006.2 1006.3 5.0
19/07:38pm 11.7 8.2 10.9 95 0.4 NNW 20 24 11 13 1006.0 1006.1 4.8

Other Formats:

Comma delimited format used in spreadsheet applications
http://www.bom.gov.au/fwo/IDT60801/IDT60801.95966.axf

JavaScript Object Notation format (JSON) in row-major order
http://www.bom.gov.au/fwo/IDT60801/IDT60801.95966.json